Time;durP1;ratioP1;P1;durP2;ratioP2;P2;SDS_P1;SDS_P2;PMS_P1;PMS_P2;Temp;Humidity;BMP_temperature;BMP_pressure;BME280_temperature;BME280_humidity;BME280_pressure;Samples;Min_cycle;Max_cycle;Signal;HPM_P1;HPM_P2
2022/03/26 00:01:16;;;;;;;42.42;22.95;;;;;;;;;;6238866;22;20016;-51
2022/03/26 00:03:41;;;;;;;53.90;24.48;;;;;;;;;;6233634;22;20358;-54
2022/03/26 00:06:07;;;;;;;48.53;22.90;;;;;;;;;;6236885;22;20135;-54
2022/03/26 00:08:32;;;;;;;49.45;24.88;;;;;;;;;;6210119;22;20011;-53
2022/03/26 00:10:57;;;;;;;54.45;25.17;;;;;;;;;;6210364;23;20335;-52
2022/03/26 00:13:23;;;;;;;51.30;23.65;;;;;;;;;;6235339;22;20012;-51
2022/03/26 00:15:48;;;;;;;52.88;24.98;;;;;;;;;;6239425;22;20497;-52
2022/03/26 00:18:17;;;;;;;51.28;24.13;;;;;;;;;;6237126;22;20007;-53
2022/03/26 00:20:42;;;;;;;50.25;24.17;;;;;;;;;;6238799;22;20008;-52
2022/03/26 00:23:08;;;;;;;47.05;22.15;;;;;;;;;;6236408;22;20008;-52
2022/03/26 00:25:33;;;;;;;46.75;22.45;;;;;;;;;;6238837;22;20450;-55
2022/03/26 00:27:58;;;;;;;48.80;23.33;;;;;;;;;;6237459;22;20083;-53
2022/03/26 00:30:24;;;;;;;45.35;23.10;;;;;;;;;;6239086;22;20016;-51
2022/03/26 00:32:49;;;;;;;42.30;21.98;;;;;;;;;;6236837;22;20027;-52
2022/03/26 00:35:14;;;;;;;57.03;23.63;;;;;;;;;;6238202;22;20004;-50
2022/03/26 00:37:40;;;;;;;54.90;23.48;;;;;;;;;;6239352;22;20023;-52
2022/03/26 00:40:06;;;;;;;49.30;23.90;;;;;;;;;;6239594;22;20466;-51
2022/03/26 00:42:32;;;;;;;46.67;22.63;;;;;;;;;;6238418;22;20398;-52
2022/03/26 00:44:57;;;;;;;52.08;24.13;;;;;;;;;;6239879;22;20031;-53
2022/03/26 00:47:22;;;;;;;47.13;23.92;;;;;;;;;;6210147;22;20008;-53
2022/03/26 00:49:48;;;;;;;57.00;26.42;;;;;;;;;;6239580;22;20015;-53
2022/03/26 00:52:13;;;;;;;44.30;22.58;;;;;;;;;;6237346;22;20012;-51
2022/03/26 00:54:39;;;;;;;46.83;24.10;;;;;;;;;;6212405;23;20012;-52
2022/03/26 00:57:04;;;;;;;50.90;23.98;;;;;;;;;;6237856;22;20036;-54
2022/03/26 00:59:29;;;;;;;52.90;25.42;;;;;;;;;;6239948;22;20048;-49
2022/03/26 01:01:55;;;;;;;56.53;26.40;;;;;;;;;;6237908;22;20015;-50
2022/03/26 01:04:20;;;;;;;56.35;25.38;;;;;;;;;;6238387;22;20031;-53
2022/03/26 01:06:45;;;;;;;59.45;27.20;;;;;;;;;;6237654;22;20042;-53
2022/03/26 01:09:11;;;;;;;50.72;24.42;;;;;;;;;;6239213;22;20706;-51
2022/03/26 01:11:36;;;;;;;54.92;26.33;;;;;;;;;;6237412;22;20020;-54
2022/03/26 01:14:02;;;;;;;52.58;24.80;;;;;;;;;;6237290;22;20016;-54
2022/03/26 01:16:27;;;;;;;49.92;24.65;;;;;;;;;;6237765;22;20012;-52
2022/03/26 01:18:53;;;;;;;55.30;24.95;;;;;;;;;;6237396;22;20563;-52
2022/03/26 01:21:19;;;;;;;48.40;24.67;;;;;;;;;;6238232;22;20019;-54
2022/03/26 01:23:49;;;;;;;53.08;23.77;;;;;;;;;;6237274;22;20030;-53
2022/03/26 01:26:14;;;;;;;52.38;25.63;;;;;;;;;;6237560;22;20066;-52
2022/03/26 01:28:40;;;;;;;60.25;27.08;;;;;;;;;;6210010;23;20295;-52
2022/03/26 01:31:05;;;;;;;49.13;24.30;;;;;;;;;;6237726;22;20016;-54
2022/03/26 01:33:30;;;;;;;48.22;24.45;;;;;;;;;;6236641;22;20016;-50
2022/03/26 01:35:56;;;;;;;52.60;26.92;;;;;;;;;;6238647;22;20419;-52
2022/03/26 01:38:21;;;;;;;59.13;25.70;;;;;;;;;;6236046;22;20012;-50
2022/03/26 01:40:47;;;;;;;50.50;24.20;;;;;;;;;;6238879;22;20043;-51
2022/03/26 01:43:12;;;;;;;55.13;25.42;;;;;;;;;;6235933;22;20012;-51
2022/03/26 01:45:38;;;;;;;51.58;26.70;;;;;;;;;;6238639;22;20015;-51
2022/03/26 01:48:03;;;;;;;71.28;26.65;;;;;;;;;;6236696;22;20013;-51
2022/03/26 01:50:29;;;;;;;57.30;26.10;;;;;;;;;;6237147;22;20012;-54
2022/03/26 01:52:54;;;;;;;51.90;24.15;;;;;;;;;;6235769;22;20016;-55
2022/03/26 01:55:21;;;;;;;51.83;25.95;;;;;;;;;;6237800;22;20020;-51
2022/03/26 01:57:47;;;;;;;54.22;25.38;;;;;;;;;;6237154;22;20016;-52
2022/03/26 02:00:12;;;;;;;58.17;26.63;;;;;;;;;;6238882;22;20057;-51
2022/03/26 02:02:43;;;;;;;55.92;23.95;;;;;;;;;;6238162;22;20016;-50
2022/03/26 02:05:08;;;;;;;54.63;25.25;;;;;;;;;;6237372;22;20107;-52
2022/03/26 02:07:34;;;;;;;55.17;24.92;;;;;;;;;;6240074;22;20031;-50
2022/03/26 02:10:00;;;;;;;52.10;22.42;;;;;;;;;;6240225;22;20005;-52
2022/03/26 02:12:26;;;;;;;47.63;23.25;;;;;;;;;;6239056;22;20651;-53
2022/03/26 02:14:52;;;;;;;53.55;25.52;;;;;;;;;;6240570;22;20066;-55
2022/03/26 02:17:18;;;;;;;54.67;24.85;;;;;;;;;;6239788;22;20032;-49
2022/03/26 02:19:50;;;;;;;54.33;25.08;;;;;;;;;;6238492;22;20028;-53
2022/03/26 02:22:15;;;;;;;56.83;24.30;;;;;;;;;;6240254;22;20016;-54
2022/03/26 02:24:41;;;;;;;52.13;26.10;;;;;;;;;;6212890;23;20104;-53
2022/03/26 02:27:07;;;;;;;58.50;27.58;;;;;;;;;;6238237;22;20031;-54
2022/03/26 02:29:32;;;;;;;56.13;24.45;;;;;;;;;;6238269;22;20016;-50
2022/03/26 02:31:57;;;;;;;45.70;24.17;;;;;;;;;;6241217;22;20618;-51
2022/03/26 02:34:24;;;;;;;53.90;24.77;;;;;;;;;;6238721;22;20015;-52
2022/03/26 02:36:53;;;;;;;58.22;24.67;;;;;;;;;;6240834;22;20020;-53
2022/03/26 02:39:18;;;;;;;54.90;27.73;;;;;;;;;;6238967;22;20011;-51
2022/03/26 02:41:43;;;;;;;62.60;27.83;;;;;;;;;;6241472;22;20302;-54
2022/03/26 02:44:09;;;;;;;53.33;25.42;;;;;;;;;;6238704;22;20024;-54
2022/03/26 02:46:36;;;;;;;55.00;24.75;;;;;;;;;;6240278;22;20008;-53
2022/03/26 02:49:01;;;;;;;47.90;22.70;;;;;;;;;;6239096;22;20016;-53
2022/03/26 02:51:26;;;;;;;50.15;24.83;;;;;;;;;;6240073;22;20020;-54
2022/03/26 02:53:52;;;;;;;54.05;24.58;;;;;;;;;;6238510;22;20306;-55
2022/03/26 02:56:19;;;;;;;59.38;27.65;;;;;;;;;;6239983;22;20172;-52
2022/03/26 02:58:44;;;;;;;54.88;25.80;;;;;;;;;;6239629;22;20466;-53
2022/03/26 03:01:10;;;;;;;61.50;27.25;;;;;;;;;;6239851;22;20038;-52
2022/03/26 03:03:35;;;;;;;54.80;26.63;;;;;;;;;;6238811;22;20012;-50
2022/03/26 03:06:00;;;;;;;56.58;26.65;;;;;;;;;;6240923;22;20434;-53
2022/03/26 03:08:26;;;;;;;56.60;27.02;;;;;;;;;;6237533;22;20012;-51
2022/03/26 03:10:53;;;;;;;66.63;27.65;;;;;;;;;;6229900;22;20016;-52
2022/03/26 03:13:21;;;;;;;55.30;26.15;;;;;;;;;;6239741;22;20012;-50
2022/03/26 03:15:46;;;;;;;58.67;26.02;;;;;;;;;;6237785;22;20019;-49
2022/03/26 03:18:12;;;;;;;57.35;27.02;;;;;;;;;;6238278;22;20385;-51
2022/03/26 03:20:37;;;;;;;57.75;26.85;;;;;;;;;;6239869;22;20024;-48
2022/03/26 03:23:03;;;;;;;68.38;26.70;;;;;;;;;;6237572;22;20016;-51
2022/03/26 03:25:29;;;;;;;57.70;26.85;;;;;;;;;;6239443;22;20481;-51
2022/03/26 03:27:56;;;;;;;51.15;25.58;;;;;;;;;;6211848;23;20015;-50
2022/03/26 03:30:21;;;;;;;56.35;24.40;;;;;;;;;;6238217;22;20087;-50
2022/03/26 03:32:46;;;;;;;55.10;25.73;;;;;;;;;;6239998;22;20027;-51
2022/03/26 03:35:11;;;;;;;50.30;24.33;;;;;;;;;;6210479;23;20012;-52
2022/03/26 03:37:39;;;;;;;58.05;27.25;;;;;;;;;;6241388;22;20016;-48
2022/03/26 03:40:05;;;;;;;57.88;26.15;;;;;;;;;;6239558;22;20009;-50
2022/03/26 03:42:30;;;;;;;59.92;26.05;;;;;;;;;;6235466;22;20016;-48
2022/03/26 03:44:55;;;;;;;58.45;26.58;;;;;;;;;;6239180;22;20661;-49
2022/03/26 03:47:20;;;;;;;53.25;26.10;;;;;;;;;;6237120;22;20037;-52
2022/03/26 03:49:46;;;;;;;62.33;26.40;;;;;;;;;;6239881;22;20008;-52
2022/03/26 03:52:11;;;;;;;61.88;26.60;;;;;;;;;;6210296;23;20031;-47
2022/03/26 03:54:36;;;;;;;69.07;27.48;;;;;;;;;;6239105;22;20464;-51
2022/03/26 03:57:02;;;;;;;63.95;28.67;;;;;;;;;;6237504;22;20484;-53
2022/03/26 03:59:27;;;;;;;72.30;28.42;;;;;;;;;;6212861;22;20641;-53
2022/03/26 04:01:52;;;;;;;70.68;29.33;;;;;;;;;;6238221;22;20011;-55
2022/03/26 04:04:18;;;;;;;72.00;30.27;;;;;;;;;;6212665;22;21001;-52
2022/03/26 04:06:44;;;;;;;67.40;29.23;;;;;;;;;;6238257;22;20445;-52
2022/03/26 04:09:09;;;;;;;66.63;27.70;;;;;;;;;;6233854;22;20066;-53
2022/03/26 04:11:34;;;;;;;73.55;29.70;;;;;;;;;;6232447;22;20083;-52
2022/03/26 04:13:59;;;;;;;69.60;32.00;;;;;;;;;;6232674;22;20046;-54
2022/03/26 04:16:25;;;;;;;79.93;29.83;;;;;;;;;;6233092;22;20048;-50
2022/03/26 04:18:50;;;;;;;66.10;30.55;;;;;;;;;;6233117;22;20020;-55
2022/03/26 04:21:15;;;;;;;70.60;30.33;;;;;;;;;;6233035;22;20016;-54
2022/03/26 04:23:41;;;;;;;68.00;31.95;;;;;;;;;;6233293;22;20043;-51
2022/03/26 04:26:07;;;;;;;66.57;28.20;;;;;;;;;;6232480;22;20056;-53
2022/03/26 04:28:32;;;;;;;73.25;31.13;;;;;;;;;;6233167;22;20477;-53
2022/03/26 04:30:57;;;;;;;67.13;30.13;;;;;;;;;;6203261;23;20019;-53
2022/03/26 04:33:23;;;;;;;62.97;30.73;;;;;;;;;;6231415;22;20012;-56
2022/03/26 04:35:48;;;;;;;58.72;28.10;;;;;;;;;;6207068;23;20008;-49
2022/03/26 04:38:13;;;;;;;77.35;29.95;;;;;;;;;;6232458;22;20086;-52
2022/03/26 04:40:39;;;;;;;70.22;29.42;;;;;;;;;;6234241;22;20030;-52
2022/03/26 04:43:04;;;;;;;69.32;30.67;;;;;;;;;;6232425;22;20118;-50
2022/03/26 04:45:30;;;;;;;68.75;29.67;;;;;;;;;;6229061;22;20035;-49
2022/03/26 04:47:55;;;;;;;70.22;30.80;;;;;;;;;;6226155;22;20012;-51
2022/03/26 04:50:20;;;;;;;65.40;31.55;;;;;;;;;;6224567;22;20077;-50
2022/03/26 04:52:47;;;;;;;71.70;32.15;;;;;;;;;;6231236;22;20848;-53
2022/03/26 04:55:13;;;;;;;67.60;31.80;;;;;;;;;;6206200;23;20015;-51
2022/03/26 04:57:42;;;;;;;62.13;29.05;;;;;;;;;;6231505;22;20024;-54
2022/03/26 05:00:09;;;;;;;70.57;29.40;;;;;;;;;;6232044;22;20012;-52
2022/03/26 05:02:36;;;;;;;73.43;28.90;;;;;;;;;;6228171;22;20020;-52
2022/03/26 05:05:01;;;;;;;67.20;27.42;;;;;;;;;;6233592;22;20042;-51
2022/03/26 05:07:45;;;;;;;67.45;29.58;;;;;;;;;;6233564;22;20040;-52
2022/03/26 05:10:11;;;;;;;66.60;28.15;;;;;;;;;;6231452;22;20023;-54
2022/03/26 05:12:36;;;;;;;66.35;28.63;;;;;;;;;;6225581;22;20036;-50
2022/03/26 05:15:01;;;;;;;59.67;26.33;;;;;;;;;;6229824;22;20012;-52
2022/03/26 05:17:27;;;;;;;60.10;29.20;;;;;;;;;;6205579;22;20012;-54
2022/03/26 05:19:52;;;;;;;72.47;29.45;;;;;;;;;;6229750;22;20062;-52
2022/03/26 05:22:17;;;;;;;65.40;27.95;;;;;;;;;;6224437;22;20004;-48
2022/03/26 05:24:42;;;;;;;73.93;31.63;;;;;;;;;;6226897;22;20115;-50
2022/03/26 05:27:08;;;;;;;73.82;28.35;;;;;;;;;;6228058;22;20020;-49
2022/03/26 05:29:33;;;;;;;69.13;30.27;;;;;;;;;;6232869;22;20559;-50
2022/03/26 05:31:59;;;;;;;74.45;29.90;;;;;;;;;;6234520;22;20016;-49
2022/03/26 05:34:24;;;;;;;70.00;31.88;;;;;;;;;;6231995;22;20064;-53
2022/03/26 05:36:50;;;;;;;77.65;30.85;;;;;;;;;;6205441;23;20134;-52
2022/03/26 05:39:15;;;;;;;78.75;29.40;;;;;;;;;;6232321;22;20018;-49
2022/03/26 05:41:41;;;;;;;80.00;35.88;;;;;;;;;;6234637;22;20001;-50
2022/03/26 05:44:06;;;;;;;72.13;31.58;;;;;;;;;;6229743;22;20023;-50
2022/03/26 05:46:32;;;;;;;75.97;34.95;;;;;;;;;;6205676;22;20023;-53
2022/03/26 05:48:57;;;;;;;75.53;31.83;;;;;;;;;;6233999;22;20015;-52
2022/03/26 05:51:22;;;;;;;81.85;33.00;;;;;;;;;;6205484;22;20077;-52
2022/03/26 05:53:49;;;;;;;81.90;32.95;;;;;;;;;;6233034;22;20060;-52
2022/03/26 05:56:15;;;;;;;88.55;36.40;;;;;;;;;;6231543;22;20008;-52
2022/03/26 05:58:40;;;;;;;77.72;32.67;;;;;;;;;;6233752;22;20088;-51
2022/03/26 06:01:06;;;;;;;63.97;29.27;;;;;;;;;;6232863;22;20012;-52
2022/03/26 06:03:31;;;;;;;59.33;26.35;;;;;;;;;;6233026;22;20747;-54
2022/03/26 06:05:58;;;;;;;85.30;28.55;;;;;;;;;;6233465;22;20012;-50
2022/03/26 06:08:23;;;;;;;72.60;31.92;;;;;;;;;;6233116;22;20016;-54
2022/03/26 06:10:49;;;;;;;73.53;28.40;;;;;;;;;;6205641;23;20008;-53
2022/03/26 06:13:14;;;;;;;64.28;29.02;;;;;;;;;;6231627;22;20020;-50
2022/03/26 06:15:39;;;;;;;72.43;31.02;;;;;;;;;;6234303;22;20023;-53
2022/03/26 06:18:04;;;;;;;72.03;27.73;;;;;;;;;;6231755;22;20783;-51
2022/03/26 06:20:30;;;;;;;76.07;28.67;;;;;;;;;;6232690;22;20024;-53
2022/03/26 06:22:55;;;;;;;75.20;30.63;;;;;;;;;;6204801;23;20027;-52
2022/03/26 06:25:20;;;;;;;65.20;26.98;;;;;;;;;;6236082;22;20016;-51
2022/03/26 06:27:49;;;;;;;66.40;27.60;;;;;;;;;;6235443;22;20008;-54
2022/03/26 06:30:15;;;;;;;62.15;26.00;;;;;;;;;;6237221;22;20012;-52
2022/03/26 06:32:40;;;;;;;53.60;26.50;;;;;;;;;;6232267;22;20131;-52
2022/03/26 06:35:06;;;;;;;70.10;30.63;;;;;;;;;;6204823;23;20111;-54
2022/03/26 06:37:31;;;;;;;73.80;28.98;;;;;;;;;;6234290;22;20019;-52
2022/03/26 06:39:57;;;;;;;65.28;28.00;;;;;;;;;;6211977;23;20020;-50
2022/03/26 06:42:22;;;;;;;68.13;29.58;;;;;;;;;;6226883;22;20012;-51
2022/03/26 06:44:47;;;;;;;60.50;26.20;;;;;;;;;;6235053;22;20039;-53
2022/03/26 06:47:12;;;;;;;70.40;28.58;;;;;;;;;;6235970;22;20518;-51
2022/03/26 06:49:38;;;;;;;71.22;29.70;;;;;;;;;;6236077;22;20011;-50
2022/03/26 06:52:04;;;;;;;69.13;28.63;;;;;;;;;;6235399;22;20034;-50
2022/03/26 06:54:29;;;;;;;71.20;28.33;;;;;;;;;;6210051;22;20384;-52
2022/03/26 06:56:55;;;;;;;75.85;31.55;;;;;;;;;;6237389;22;20027;-52
2022/03/26 06:59:21;;;;;;;78.03;33.92;;;;;;;;;;6237012;22;20460;-51
2022/03/26 07:01:46;;;;;;;71.30;30.90;;;;;;;;;;6237601;22;20561;-53
2022/03/26 07:04:12;;;;;;;74.97;29.75;;;;;;;;;;6237526;22;20027;-52
2022/03/26 07:06:37;;;;;;;74.53;32.60;;;;;;;;;;6211598;23;20032;-52
2022/03/26 07:09:03;;;;;;;65.43;28.90;;;;;;;;;;6238182;22;20012;-49
2022/03/26 07:11:28;;;;;;;71.28;29.42;;;;;;;;;;6237297;22;20066;-53
2022/03/26 07:13:53;;;;;;;68.13;29.55;;;;;;;;;;6239787;22;20016;-50
2022/03/26 07:16:19;;;;;;;73.53;29.38;;;;;;;;;;6236328;22;20016;-53
2022/03/26 07:18:44;;;;;;;62.92;28.77;;;;;;;;;;6236997;22;20011;-55
2022/03/26 07:21:09;;;;;;;73.75;28.38;;;;;;;;;;6238081;22;20008;-50
2022/03/26 07:23:35;;;;;;;68.05;28.73;;;;;;;;;;6237752;22;20026;-51
2022/03/26 07:26:01;;;;;;;94.70;32.85;;;;;;;;;;6212183;23;20000;-51
2022/03/26 07:28:26;;;;;;;74.35;30.92;;;;;;;;;;6235392;22;20020;-52
2022/03/26 07:30:51;;;;;;;80.57;32.00;;;;;;;;;;6237216;22;20060;-53
2022/03/26 07:33:17;;;;;;;88.80;32.78;;;;;;;;;;6236761;22;20076;-55
2022/03/26 07:35:43;;;;;;;79.85;31.83;;;;;;;;;;6236160;22;20023;-52
2022/03/26 07:38:08;;;;;;;79.88;32.17;;;;;;;;;;6232815;22;20031;-55
2022/03/26 07:40:33;;;;;;;77.65;32.20;;;;;;;;;;6237377;22;20508;-53
2022/03/26 07:42:59;;;;;;;71.35;31.27;;;;;;;;;;6235542;22;20008;-53
2022/03/26 07:45:24;;;;;;;86.38;32.28;;;;;;;;;;6226552;22;20024;-52
2022/03/26 07:47:49;;;;;;;76.50;30.60;;;;;;;;;;6239636;22;20028;-53
2022/03/26 07:50:15;;;;;;;79.40;31.33;;;;;;;;;;6234522;22;20008;-52
2022/03/26 07:52:41;;;;;;;76.20;31.17;;;;;;;;;;6208540;23;20023;-51
2022/03/26 07:55:07;;;;;;;73.53;32.63;;;;;;;;;;6237144;22;20012;-53
2022/03/26 07:57:32;;;;;;;80.82;32.08;;;;;;;;;;6238020;22;20411;-50
2022/03/26 07:59:58;;;;;;;61.70;29.90;;;;;;;;;;6237468;22;20441;-53
2022/03/26 08:02:23;;;;;;;65.78;28.83;;;;;;;;;;6211463;22;20390;-49
2022/03/26 08:04:48;;;;;;;73.05;28.85;;;;;;;;;;6239284;22;20014;-55
2022/03/26 08:07:14;;;;;;;67.78;28.45;;;;;;;;;;6236637;22;20855;-54
2022/03/26 08:09:39;;;;;;;66.00;27.25;;;;;;;;;;6238993;22;20009;-49
2022/03/26 08:12:05;;;;;;;67.63;29.70;;;;;;;;;;6238517;22;20024;-55
2022/03/26 08:14:30;;;;;;;73.28;27.88;;;;;;;;;;6237942;22;20016;-52
2022/03/26 08:16:55;;;;;;;67.30;28.10;;;;;;;;;;6238075;22;20007;-54
2022/03/26 08:19:21;;;;;;;71.43;27.50;;;;;;;;;;6211533;22;20082;-50
2022/03/26 08:21:46;;;;;;;63.67;26.20;;;;;;;;;;6237479;22;20011;-53
2022/03/26 08:24:12;;;;;;;63.50;25.02;;;;;;;;;;6231127;22;20009;-55
2022/03/26 08:26:38;;;;;;;63.90;24.58;;;;;;;;;;6236136;22;20008;-53
2022/03/26 08:29:03;;;;;;;52.50;24.55;;;;;;;;;;6234734;22;20100;-54
2022/03/26 08:31:29;;;;;;;51.67;26.80;;;;;;;;;;6235851;22;20047;-52
2022/03/26 08:33:55;;;;;;;57.50;26.83;;;;;;;;;;6238442;22;20355;-51
2022/03/26 08:36:20;;;;;;;62.20;26.92;;;;;;;;;;6235737;22;20012;-53
2022/03/26 08:38:46;;;;;;;62.70;27.25;;;;;;;;;;6235963;22;20035;-53
2022/03/26 08:41:12;;;;;;;62.75;25.42;;;;;;;;;;6235862;22;20047;-52
2022/03/26 08:43:37;;;;;;;56.45;24.02;;;;;;;;;;6236213;22;20825;-52
2022/03/26 08:46:02;;;;;;;54.17;23.52;;;;;;;;;;6235026;22;20071;-53
2022/03/26 08:48:27;;;;;;;52.47;23.90;;;;;;;;;;6236038;22;20047;-53
2022/03/26 08:50:53;;;;;;;49.53;21.40;;;;;;;;;;6238548;22;20019;-53
2022/03/26 08:53:18;;;;;;;68.97;24.58;;;;;;;;;;6235598;22;20027;-52
2022/03/26 08:55:43;;;;;;;47.53;20.80;;;;;;;;;;6234591;22;20019;-54
2022/03/26 08:58:09;;;;;;;53.35;21.52;;;;;;;;;;6235304;22;20218;-53
2022/03/26 09:00:34;;;;;;;46.97;20.20;;;;;;;;;;6205133;22;20008;-51
2022/03/26 09:03:00;;;;;;;56.85;21.90;;;;;;;;;;6210154;23;20020;-52
2022/03/26 09:05:25;;;;;;;49.70;22.38;;;;;;;;;;6236660;22;20040;-55
2022/03/26 09:07:51;;;;;;;45.25;20.13;;;;;;;;;;6236987;22;20101;-53
2022/03/26 09:10:16;;;;;;;46.05;19.83;;;;;;;;;;6236619;22;21031;-53
2022/03/26 09:12:41;;;;;;;50.03;20.33;;;;;;;;;;6209571;23;20054;-52
2022/03/26 09:15:07;;;;;;;50.95;21.80;;;;;;;;;;6237590;22;20342;-55
2022/03/26 09:17:33;;;;;;;46.88;20.42;;;;;;;;;;6234759;22;20054;-52
2022/03/26 09:19:59;;;;;;;46.28;20.23;;;;;;;;;;6229940;22;20068;-53
2022/03/26 09:22:24;;;;;;;32.97;13.68;;;;;;;;;;6234878;22;20070;-55
2022/03/26 09:24:50;;;;;;;41.75;19.80;;;;;;;;;;6205736;23;20292;-54
2022/03/26 09:27:15;;;;;;;42.88;18.75;;;;;;;;;;6233798;22;20012;-53
2022/03/26 09:29:41;;;;;;;43.90;18.80;;;;;;;;;;6208341;23;20012;-53
2022/03/26 09:32:06;;;;;;;43.97;19.40;;;;;;;;;;6233667;22;20028;-56
2022/03/26 09:34:31;;;;;;;42.45;19.73;;;;;;;;;;6233052;22;20020;-53
2022/03/26 09:36:57;;;;;;;39.95;20.05;;;;;;;;;;6231686;22;20046;-52
2022/03/26 09:39:22;;;;;;;53.00;20.40;;;;;;;;;;6231706;22;20023;-51
2022/03/26 09:41:48;;;;;;;41.42;19.73;;;;;;;;;;6233036;22;20012;-53
2022/03/26 09:44:13;;;;;;;42.55;19.70;;;;;;;;;;6232369;22;20028;-53
2022/03/26 09:46:39;;;;;;;41.03;17.85;;;;;;;;;;6232500;22;20016;-53
2022/03/26 09:49:04;;;;;;;50.38;21.35;;;;;;;;;;6201029;23;20080;-54
2022/03/26 09:51:31;;;;;;;46.15;20.35;;;;;;;;;;6233349;22;20633;-53
2022/03/26 09:53:57;;;;;;;44.70;18.83;;;;;;;;;;6206764;23;20047;-51
2022/03/26 09:56:23;;;;;;;44.05;18.83;;;;;;;;;;6232918;22;20393;-50
2022/03/26 09:58:52;;;;;;;41.50;18.08;;;;;;;;;;6234340;22;20035;-53
2022/03/26 10:01:18;;;;;;;41.33;19.20;;;;;;;;;;6236818;22;20104;-52
2022/03/26 10:04:02;;;;;;;44.67;18.52;;;;;;;;;;6238176;22;20454;-53
2022/03/26 10:06:27;;;;;;;38.97;15.77;;;;;;;;;;6233259;22;20023;-50
2022/03/26 10:08:52;;;;;;;44.15;16.58;;;;;;;;;;6237104;22;20008;-52
2022/03/26 10:11:21;;;;;;;31.85;14.35;;;;;;;;;;6229364;22;20100;-54
2022/03/26 10:13:48;;;;;;;32.67;14.97;;;;;;;;;;6232628;22;20054;-54
2022/03/26 10:16:14;;;;;;;40.15;16.38;;;;;;;;;;6230831;22;20016;-58
2022/03/26 10:18:40;;;;;;;40.85;17.65;;;;;;;;;;6234792;22;20095;-53
2022/03/26 10:21:07;;;;;;;37.85;15.50;;;;;;;;;;6234266;22;20012;-55
2022/03/26 10:23:33;;;;;;;43.83;17.83;;;;;;;;;;6205931;22;20020;-51
2022/03/26 10:26:05;;;;;;;36.60;16.13;;;;;;;;;;6235656;22;20008;-49
2022/03/26 10:28:31;;;;;;;27.85;13.73;;;;;;;;;;6234270;22;20012;-54
2022/03/26 10:34:00;;;;;;;38.67;16.10;;;;;;;;;;6237280;22;20023;-53
2022/03/26 10:36:25;;;;;;;35.72;16.02;;;;;;;;;;6238286;22;20161;-54
2022/03/26 10:38:50;;;;;;;32.80;16.48;;;;;;;;;;6211288;23;20094;-55
2022/03/26 10:41:20;;;;;;;35.58;15.82;;;;;;;;;;6238122;22;20008;-54
2022/03/26 10:43:45;;;;;;;34.45;14.50;;;;;;;;;;6237693;22;20450;-49
2022/03/26 10:46:10;;;;;;;29.92;14.68;;;;;;;;;;6238689;22;20031;-51
2022/03/26 10:48:36;;;;;;;33.92;13.27;;;;;;;;;;6236751;22;20511;-53
2022/03/26 10:51:06;;;;;;;36.08;16.08;;;;;;;;;;6238551;22;20005;-52
2022/03/26 10:53:35;;;;;;;31.23;15.32;;;;;;;;;;6236146;22;20066;-55
2022/03/26 10:56:01;;;;;;;34.90;15.80;;;;;;;;;;6239824;22;20008;-53
2022/03/26 10:58:26;;;;;;;30.52;15.15;;;;;;;;;;6236211;22;20074;-54
2022/03/26 11:00:52;;;;;;;32.05;15.82;;;;;;;;;;6239199;22;20008;-53
2022/03/26 11:03:17;;;;;;;34.00;16.13;;;;;;;;;;6236397;22;20059;-50
2022/03/26 11:05:43;;;;;;;32.15;15.95;;;;;;;;;;6239657;22;20023;-50
2022/03/26 11:08:10;;;;;;;31.45;16.35;;;;;;;;;;6208811;23;20012;-53
2022/03/26 11:10:35;;;;;;;26.02;13.82;;;;;;;;;;6238554;22;20395;-51
2022/03/26 11:13:03;;;;;;;27.75;14.23;;;;;;;;;;6236713;22;20091;-48
2022/03/26 11:15:31;;;;;;;29.23;14.52;;;;;;;;;;6211337;22;20013;-52
2022/03/26 11:18:05;;;;;;;30.58;13.40;;;;;;;;;;6236309;22;20371;-52
2022/03/26 11:20:30;;;;;;;25.42;13.20;;;;;;;;;;6237052;22;20016;-50
2022/03/26 11:23:15;;;;;;;25.70;14.60;;;;;;;;;;6236553;22;20013;-54
2022/03/26 11:25:56;;;;;;;29.08;14.95;;;;;;;;;;6238528;22;20113;-52
2022/03/26 11:28:38;;;;;;;29.30;15.38;;;;;;;;;;6236014;22;20012;-55
2022/03/26 11:31:06;;;;;;;26.40;12.48;;;;;;;;;;6209564;23;20016;-54
2022/03/26 11:33:37;;;;;;;27.58;12.90;;;;;;;;;;6237534;22;20032;-54
2022/03/26 11:36:03;;;;;;;21.92;11.60;;;;;;;;;;6236144;22;20091;-53
2022/03/26 11:38:30;;;;;;;23.83;11.05;;;;;;;;;;6235327;22;20016;-50
2022/03/26 11:40:56;;;;;;;19.60;11.32;;;;;;;;;;6235927;22;20012;-56
2022/03/26 11:43:45;;;;;;;25.30;12.25;;;;;;;;;;6207914;22;20008;-55
2022/03/26 11:51:40;;;;;;;25.42;13.05;;;;;;;;;;6235286;22;20023;-54
2022/03/26 11:54:15;;;;;;;22.10;11.07;;;;;;;;;;6235273;22;20015;-52
2022/03/26 11:56:40;;;;;;;26.67;11.50;;;;;;;;;;6236286;22;20012;-54
2022/03/26 11:59:07;;;;;;;22.85;10.68;;;;;;;;;;6237466;22;20019;-56
2022/03/26 12:01:58;;;;;;;19.15;11.02;;;;;;;;;;6236288;22;20033;-53
2022/03/26 12:04:27;;;;;;;21.30;10.93;;;;;;;;;;6228632;22;20474;-54
2022/03/26 12:06:57;;;;;;;22.10;10.90;;;;;;;;;;6211015;23;20066;-52
2022/03/26 12:09:38;;;;;;;22.83;11.07;;;;;;;;;;6208618;22;20918;-52
2022/03/26 12:12:13;;;;;;;19.42;10.80;;;;;;;;;;6210450;23;20024;-53
2022/03/26 12:14:58;;;;;;;17.25;10.13;;;;;;;;;;6236088;22;20012;-51
2022/03/26 12:17:43;;;;;;;22.55;10.82;;;;;;;;;;6237403;22;20126;-50
2022/03/26 12:20:17;;;;;;;21.88;10.48;;;;;;;;;;6209483;23;20020;-53
2022/03/26 12:22:43;;;;;;;25.17;11.73;;;;;;;;;;6211073;23;20023;-52
2022/03/26 12:25:08;;;;;;;17.42;10.18;;;;;;;;;;6234640;22;20059;-55
2022/03/26 12:27:37;;;;;;;20.67;11.05;;;;;;;;;;6236816;22;20019;-55
2022/03/26 12:30:03;;;;;;;23.58;11.80;;;;;;;;;;6237004;22;20012;-54
2022/03/26 12:32:29;;;;;;;26.63;11.18;;;;;;;;;;6236696;22;20035;-51
2022/03/26 12:34:54;;;;;;;22.50;11.60;;;;;;;;;;6236504;22;20015;-52
2022/03/26 12:37:20;;;;;;;25.77;10.40;;;;;;;;;;6236889;22;20012;-54
2022/03/26 12:39:46;;;;;;;24.90;12.20;;;;;;;;;;6236748;22;20058;-55
2022/03/26 12:42:11;;;;;;;32.13;13.13;;;;;;;;;;6235967;22;20015;-53
2022/03/26 12:44:37;;;;;;;25.17;10.43;;;;;;;;;;6236129;22;20019;-53
2022/03/26 12:47:02;;;;;;;20.02;10.15;;;;;;;;;;6237170;22;20067;-54
2022/03/26 12:49:28;;;;;;;24.45;11.20;;;;;;;;;;6235123;22;20016;-52
2022/03/26 12:51:53;;;;;;;21.77;10.15;;;;;;;;;;6236371;22;20469;-54
2022/03/26 12:54:19;;;;;;;23.35;11.52;;;;;;;;;;6234413;22;20008;-53
2022/03/26 12:56:44;;;;;;;24.98;11.93;;;;;;;;;;6235766;22;20362;-54
2022/03/26 12:59:14;;;;;;;31.65;12.73;;;;;;;;;;6236640;22;20024;-53
2022/03/26 13:01:41;;;;;;;28.17;10.53;;;;;;;;;;6236975;22;20030;-52
2022/03/26 13:04:07;;;;;;;14.82;9.52;;;;;;;;;;6237939;22;20008;-55
2022/03/26 13:06:32;;;;;;;22.48;11.27;;;;;;;;;;6234754;22;20018;-53
2022/03/26 13:08:58;;;;;;;23.13;10.48;;;;;;;;;;6238005;22;20062;-52
2022/03/26 13:11:24;;;;;;;21.65;9.38;;;;;;;;;;6234190;22;20008;-55
2022/03/26 13:13:53;;;;;;;26.50;9.80;;;;;;;;;;6238701;22;20072;-55
2022/03/26 13:16:21;;;;;;;20.83;10.38;;;;;;;;;;6234941;22;20022;-55
2022/03/26 13:18:47;;;;;;;20.73;11.13;;;;;;;;;;6237913;22;20080;-54
2022/03/26 13:21:14;;;;;;;21.40;10.98;;;;;;;;;;6234386;22;20076;-55
2022/03/26 13:23:50;;;;;;;21.08;11.90;;;;;;;;;;6210771;23;20012;-53
2022/03/26 13:26:15;;;;;;;22.88;11.32;;;;;;;;;;6207159;22;20004;-53
2022/03/26 13:28:41;;;;;;;26.65;12.30;;;;;;;;;;6236331;22;20765;-53
2022/03/26 13:31:22;;;;;;;23.95;10.98;;;;;;;;;;6236179;22;20058;-54
2022/03/26 13:33:48;;;;;;;22.23;10.45;;;;;;;;;;6236132;22;20050;-53
2022/03/26 13:36:13;;;;;;;23.80;10.50;;;;;;;;;;6208844;22;20012;-55
2022/03/26 13:38:40;;;;;;;20.52;10.80;;;;;;;;;;6236857;22;20008;-51
2022/03/26 13:41:12;;;;;;;22.02;10.40;;;;;;;;;;6236663;22;20012;-53
2022/03/26 13:43:37;;;;;;;22.33;10.52;;;;;;;;;;6236269;22;20026;-52
2022/03/26 13:46:03;;;;;;;18.63;10.02;;;;;;;;;;6205080;23;20008;-57
2022/03/26 13:48:30;;;;;;;28.17;10.52;;;;;;;;;;6236775;22;20031;-53
2022/03/26 13:51:09;;;;;;;23.25;10.45;;;;;;;;;;6234576;22;20012;-55
2022/03/26 13:53:41;;;;;;;20.83;11.33;;;;;;;;;;6209491;22;20024;-51
2022/03/26 13:56:08;;;;;;;20.65;11.70;;;;;;;;;;6237721;22;20023;-51
2022/03/26 13:58:34;;;;;;;25.15;9.82;;;;;;;;;;6233774;22;20016;-52
2022/03/26 14:00:59;;;;;;;27.58;11.90;;;;;;;;;;6237479;22;20006;-54
2022/03/26 14:03:24;;;;;;;20.42;10.50;;;;;;;;;;6238771;22;20012;-54
2022/03/26 14:05:50;;;;;;;23.33;11.25;;;;;;;;;;6241606;22;20012;-54
2022/03/26 14:08:15;;;;;;;28.05;10.90;;;;;;;;;;6211489;22;20012;-53
2022/03/26 14:10:44;;;;;;;25.80;10.80;;;;;;;;;;6241479;22;20111;-55
2022/03/26 14:13:13;;;;;;;19.17;10.38;;;;;;;;;;6239185;22;20016;-52
2022/03/26 14:15:39;;;;;;;26.15;11.50;;;;;;;;;;6237299;22;20016;-55
2022/03/26 14:18:06;;;;;;;24.88;11.48;;;;;;;;;;6238802;22;20012;-54
2022/03/26 14:20:31;;;;;;;22.48;12.60;;;;;;;;;;6238371;22;20008;-55